Chengwatana, Minnesota
Current Conditions -  °F | °C
As of 5:55 PM on Saturday 22 Nov 2014 (Local Time) from KROS Reporting Station
Overcast Overcast  
Wind Chill: 27°   Ceiling: 400
Heat Index: 33°   Visibility: 7mi
Dew Point: 32°   Wind: 7mph
Humidity: 94%   Direction: 140°SE
Pressure: 29.63"   Gusts: NA
Location:  45.8356°N, 92.9649°W
Report Text: KROS 222355Z AUTO 14006KT 7SM OVC004 01/00 A2963 RMK AO2 T00080000 10022 20007
Loading
Personal Weather Stations






























Interactive Weather Map New forecast layout! Learn more

10-Day Weather Forecast

Advertisements
Track Severe Weather on mobile